sensor_id;sensor_type;location;lat;lon;timestamp;pressure;altitude;pressure_sealevel;temperature;humidity
71976;BME280;60680;52.182;5.398;2022-11-04T00:02:04;100036.16;;;11.26;96.14
71976;BME280;60680;52.182;5.398;2022-11-04T00:04:31;100040.31;;;11.28;95.95
71976;BME280;60680;52.182;5.398;2022-11-04T00:06:57;100035.56;;;11.22;95.42
71976;BME280;60680;52.182;5.398;2022-11-04T00:09:26;100033.88;;;11.21;96.38
71976;BME280;60680;52.182;5.398;2022-11-04T00:11:54;100042.50;;;11.21;95.47
71976;BME280;60680;52.182;5.398;2022-11-04T00:14:39;100041.59;;;11.22;95.32
71976;BME280;60680;52.182;5.398;2022-11-04T00:17:09;100045.84;;;11.23;96.14
71976;BME280;60680;52.182;5.398;2022-11-04T00:19:50;100047.72;;;11.21;95.56
71976;BME280;60680;52.182;5.398;2022-11-04T00:22:36;100053.78;;;11.22;95.12
71976;BME280;60680;52.182;5.398;2022-11-04T00:25:21;100053.13;;;11.18;94.90
71976;BME280;60680;52.182;5.398;2022-11-04T00:30:55;100058.44;;;11.17;94.98
71976;BME280;60680;52.182;5.398;2022-11-04T00:33:23;100059.47;;;11.14;95.66
71976;BME280;60680;52.182;5.398;2022-11-04T00:35:55;100070.72;;;11.15;96.29
71976;BME280;60680;52.182;5.398;2022-11-04T00:38:23;100085.53;;;11.14;95.79
71976;BME280;60680;52.182;5.398;2022-11-04T00:40:50;100085.81;;;11.10;95.71
71976;BME280;60680;52.182;5.398;2022-11-04T00:43:17;100084.13;;;11.09;95.46
71976;BME280;60680;52.182;5.398;2022-11-04T00:45:43;100084.97;;;11.09;95.40
71976;BME280;60680;52.182;5.398;2022-11-04T00:48:10;100089.34;;;11.09;95.17
71976;BME280;60680;52.182;5.398;2022-11-04T00:50:37;100094.78;;;11.06;95.09
71976;BME280;60680;52.182;5.398;2022-11-04T00:53:05;100099.03;;;11.07;95.27
71976;BME280;60680;52.182;5.398;2022-11-04T00:55:32;100098.41;;;11.03;95.09
71976;BME280;60680;52.182;5.398;2022-11-04T00:57:59;100091.50;;;11.02;94.95
71976;BME280;60680;52.182;5.398;2022-11-04T01:00:25;100102.88;;;11.01;94.95
71976;BME280;60680;52.182;5.398;2022-11-04T01:02:52;100102.03;;;11.00;94.91
71976;BME280;60680;52.182;5.398;2022-11-04T01:05:19;100107.34;;;10.99;95.23
71976;BME280;60680;52.182;5.398;2022-11-04T01:07:45;100112.56;;;10.99;95.07
71976;BME280;60680;52.182;5.398;2022-11-04T01:10:12;100122.31;;;10.95;94.98
71976;BME280;60680;52.182;5.398;2022-11-04T01:12:38;100119.72;;;10.95;95.43
71976;BME280;60680;52.182;5.398;2022-11-04T01:15:05;100123.97;;;10.96;95.29
71976;BME280;60680;52.182;5.398;2022-11-04T01:17:31;100128.19;;;10.99;94.96
71976;BME280;60680;52.182;5.398;2022-11-04T01:19:58;100129.19;;;10.96;95.21
71976;BME280;60680;52.182;5.398;2022-11-04T01:22:24;100138.69;;;10.97;95.42
71976;BME280;60680;52.182;5.398;2022-11-04T01:24:51;100145.66;;;10.97;95.26
71976;BME280;60680;52.182;5.398;2022-11-04T01:27:18;100152.06;;;10.91;94.91
71976;BME280;60680;52.182;5.398;2022-11-04T01:29:44;100150.59;;;10.87;94.53
71976;BME280;60680;52.182;5.398;2022-11-04T01:32:11;100160.19;;;10.87;94.64
71976;BME280;60680;52.182;5.398;2022-11-04T01:34:37;100164.44;;;10.88;95.05
71976;BME280;60680;52.182;5.398;2022-11-04T01:37:09;100169.84;;;10.85;95.03
71976;BME280;60680;52.182;5.398;2022-11-04T01:39:36;100171.78;;;10.81;94.54
71976;BME280;60680;52.182;5.398;2022-11-04T01:42:02;100172.63;;;10.81;95.28
71976;BME280;60680;52.182;5.398;2022-11-04T01:52:16;100187.41;;;10.81;94.31
71976;BME280;60680;52.182;5.398;2022-11-04T01:54:47;100182.28;;;10.79;94.86
71976;BME280;60680;52.182;5.398;2022-11-04T01:57:24;100186.88;;;10.76;94.01
71976;BME280;60680;52.182;5.398;2022-11-04T01:59:51;100182.88;;;10.70;94.22
71976;BME280;60680;52.182;5.398;2022-11-04T02:02:18;100198.56;;;10.69;94.78
71976;BME280;60680;52.182;5.398;2022-11-04T02:04:47;100194.22;;;10.69;94.56
71976;BME280;60680;52.182;5.398;2022-11-04T02:07:14;100194.31;;;10.68;93.68
71976;BME280;60680;52.182;5.398;2022-11-04T02:09:41;100192.09;;;10.61;93.81
71976;BME280;60680;52.182;5.398;2022-11-04T02:12:08;100198.97;;;10.63;94.57
71976;BME280;60680;52.182;5.398;2022-11-04T02:14:54;100204.25;;;10.61;93.77
71976;BME280;60680;52.182;5.398;2022-11-04T02:31:01;100240.31;;;10.53;92.95
71976;BME280;60680;52.182;5.398;2022-11-04T02:33:40;100241.22;;;10.52;92.81
71976;BME280;60680;52.182;5.398;2022-11-04T02:44:50;100251.34;;;10.42;93.15
71976;BME280;60680;52.182;5.398;2022-11-04T02:47:25;100258.97;;;10.45;92.58
71976;BME280;60680;52.182;5.398;2022-11-04T02:49:57;100268.72;;;10.42;92.57
71976;BME280;60680;52.182;5.398;2022-11-04T02:55:25;100272.91;;;10.44;92.88
71976;BME280;60680;52.182;5.398;2022-11-04T02:57:55;100275.50;;;10.44;93.05
71976;BME280;60680;52.182;5.398;2022-11-04T03:00:24;100271.22;;;10.43;92.36
71976;BME280;60680;52.182;5.398;2022-11-04T03:02:58;100272.09;;;10.44;92.38
71976;BME280;60680;52.182;5.398;2022-11-04T03:05:30;100280.78;;;10.43;92.97
71976;BME280;60680;52.182;5.398;2022-11-04T03:08:01;100277.38;;;10.42;92.60
71976;BME280;60680;52.182;5.398;2022-11-04T03:10:36;100283.47;;;10.41;93.16
71976;BME280;60680;52.182;5.398;2022-11-04T03:13:34;100292.22;;;10.40;92.71
71976;BME280;60680;52.182;5.398;2022-11-04T03:16:05;100284.69;;;10.35;93.30
71976;BME280;60680;52.182;5.398;2022-11-04T03:21:18;100290.56;;;10.23;92.69
71976;BME280;60680;52.182;5.398;2022-11-04T03:23:45;100294.09;;;10.22;92.83
71976;BME280;60680;52.182;5.398;2022-11-04T03:26:28;100300.03;;;10.24;92.85
71976;BME280;60680;52.182;5.398;2022-11-04T03:29:22;100300.03;;;10.24;93.14
71976;BME280;60680;52.182;5.398;2022-11-04T03:34:30;100316.09;;;10.16;93.10
71976;BME280;60680;52.182;5.398;2022-11-04T03:36:57;100319.44;;;10.18;93.27
71976;BME280;60680;52.182;5.398;2022-11-04T03:39:24;100327.25;;;10.18;93.12
71976;BME280;60680;52.182;5.398;2022-11-04T03:41:59;100321.09;;;10.19;93.30
71976;BME280;60680;52.182;5.398;2022-11-04T03:44:28;100324.81;;;10.15;93.40
71976;BME280;60680;52.182;5.398;2022-11-04T03:46:56;100334.44;;;10.13;92.74
71976;BME280;60680;52.182;5.398;2022-11-04T03:49:23;100324.81;;;10.15;93.60
71976;BME280;60680;52.182;5.398;2022-11-04T03:51:50;100324.81;;;10.15;92.93
71976;BME280;60680;52.182;5.398;2022-11-04T03:54:18;100337.06;;;10.13;93.27
71976;BME280;60680;52.182;5.398;2022-11-04T03:56:55;100338.75;;;10.14;93.68
71976;BME280;60680;52.182;5.398;2022-11-04T03:59:39;100329.34;;;10.12;92.93
71976;BME280;60680;52.182;5.398;2022-11-04T04:05:15;100328.69;;;10.08;93.08
71976;BME280;60680;52.182;5.398;2022-11-04T04:07:48;100334.22;;;10.02;91.64
71976;BME280;60680;52.182;5.398;2022-11-04T04:10:24;100336.81;;;10.02;92.46
71976;BME280;60680;52.182;5.398;2022-11-04T04:16:00;100343.88;;;10.00;92.26
71976;BME280;60680;52.182;5.398;2022-11-04T04:18:42;100341.47;;;9.97;92.07
71976;BME280;60680;52.182;5.398;2022-11-04T04:21:13;100347.06;;;9.89;91.46
71976;BME280;60680;52.182;5.398;2022-11-04T04:23:44;100346.25;;;9.89;91.95
71976;BME280;60680;52.182;5.398;2022-11-04T04:26:33;100350.44;;;9.91;92.25
71976;BME280;60680;52.182;5.398;2022-11-04T04:29:19;100348.84;;;9.89;92.50
71976;BME280;60680;52.182;5.398;2022-11-04T04:31:47;100354.19;;;9.86;92.55
71976;BME280;60680;52.182;5.398;2022-11-04T04:34:20;100356.22;;;9.80;91.67
71976;BME280;60680;52.182;5.398;2022-11-04T04:39:19;100365.94;;;9.77;91.93
71976;BME280;60680;52.182;5.398;2022-11-04T04:42:07;100363.50;;;9.74;92.34
71976;BME280;60680;52.182;5.398;2022-11-04T04:44:52;100359.41;;;9.70;91.92
71976;BME280;60680;52.182;5.398;2022-11-04T04:47:27;100367.28;;;9.68;92.45
71976;BME280;60680;52.182;5.398;2022-11-04T04:49:57;100363.00;;;9.67;91.76
71976;BME280;60680;52.182;5.398;2022-11-04T04:52:36;100361.41;;;9.65;91.60
71976;BME280;60680;52.182;5.398;2022-11-04T04:55:05;100366.09;;;9.58;91.79
71976;BME280;60680;52.182;5.398;2022-11-04T04:57:31;100368.63;;;9.59;92.08
71976;BME280;60680;52.182;5.398;2022-11-04T04:59:58;100374.75;;;9.58;92.58
71976;BME280;60680;52.182;5.398;2022-11-04T05:02:24;100376.66;;;9.55;91.88
71976;BME280;60680;52.182;5.398;2022-11-04T05:04:51;100383.84;;;9.50;92.54
71976;BME280;60680;52.182;5.398;2022-11-04T05:07:17;100388.22;;;9.49;92.42
71976;BME280;60680;52.182;5.398;2022-11-04T05:09:44;100388.22;;;9.49;92.87
71976;BME280;60680;52.182;5.398;2022-11-04T05:12:10;100395.94;;;9.51;92.16
71976;BME280;60680;52.182;5.398;2022-11-04T05:14:37;100390.81;;;9.49;92.92
71976;BME280;60680;52.182;5.398;2022-11-04T05:17:03;100400.34;;;9.49;92.43
71976;BME280;60680;52.182;5.398;2022-11-04T05:19:30;100400.34;;;9.49;93.06
71976;BME280;60680;52.182;5.398;2022-11-04T05:21:57;100401.19;;;9.49;92.99
71976;BME280;60680;52.182;5.398;2022-11-04T05:24:24;100402.03;;;9.50;92.74
71976;BME280;60680;52.182;5.398;2022-11-04T05:26:50;100402.88;;;9.50;93.23
71976;BME280;60680;52.182;5.398;2022-11-04T05:29:17;100401.94;;;9.51;93.23
71976;BME280;60680;52.182;5.398;2022-11-04T05:31:43;100406.31;;;9.51;93.02
71976;BME280;60680;52.182;5.398;2022-11-04T05:34:10;100406.25;;;9.52;93.18
71976;BME280;60680;52.182;5.398;2022-11-04T05:36:37;100407.06;;;9.53;93.17
71976;BME280;60680;52.182;5.398;2022-11-04T05:39:05;100410.75;;;9.49;92.98
71976;BME280;60680;52.182;5.398;2022-11-04T05:41:33;100410.81;;;9.47;92.78
71976;BME280;60680;52.182;5.398;2022-11-04T05:44:01;100412.59;;;9.47;92.34
71976;BME280;60680;52.182;5.398;2022-11-04T05:46:29;100416.25;;;9.43;92.59
71976;BME280;60680;52.182;5.398;2022-11-04T05:48:56;100410.38;;;9.39;92.63
71976;BME280;60680;52.182;5.398;2022-11-04T05:51:25;100411.25;;;9.39;92.19
71976;BME280;60680;52.182;5.398;2022-11-04T05:53:52;100421.63;;;9.39;92.37
71976;BME280;60680;52.182;5.398;2022-11-04T05:56:19;100419.94;;;9.38;92.48
71976;BME280;60680;52.182;5.398;2022-11-04T05:58:45;100425.31;;;9.35;92.85
71976;BME280;60680;52.182;5.398;2022-11-04T06:01:36;100434.75;;;9.36;92.72
71976;BME280;60680;52.182;5.398;2022-11-04T06:04:04;100441.13;;;9.31;92.81
71976;BME280;60680;52.182;5.398;2022-11-04T06:06:33;100460.22;;;9.30;92.67
71976;BME280;60680;52.182;5.398;2022-11-04T06:09:02;100459.19;;;9.32;92.46
71976;BME280;60680;52.182;5.398;2022-11-04T06:11:29;100461.91;;;9.31;92.25
71976;BME280;60680;52.182;5.398;2022-11-04T06:13:56;100459.38;;;9.29;91.96
71976;BME280;60680;52.182;5.398;2022-11-04T06:16:23;100461.13;;;9.29;92.33
71976;BME280;60680;52.182;5.398;2022-11-04T06:18:51;100461.22;;;9.27;92.33
71976;BME280;60680;52.182;5.398;2022-11-04T06:23:47;100461.53;;;9.21;92.52
71976;BME280;60680;52.182;5.398;2022-11-04T06:26:14;100466.94;;;9.16;92.52
71976;BME280;60680;52.182;5.398;2022-11-04T06:28:43;100470.53;;;9.14;92.44
71976;BME280;60680;52.182;5.398;2022-11-04T06:31:11;100468.78;;;9.14;92.61
71976;BME280;60680;52.182;5.398;2022-11-04T06:33:38;100477.72;;;9.09;91.91
71976;BME280;60680;52.182;5.398;2022-11-04T06:36:06;100471.09;;;9.03;92.00
71976;BME280;60680;52.182;5.398;2022-11-04T06:38:34;100475.59;;;9.00;92.40
71976;BME280;60680;52.182;5.398;2022-11-04T06:41:04;100477.47;;;8.96;92.17
71976;BME280;60680;52.182;5.398;2022-11-04T06:43:30;100474.94;;;8.94;91.78
71976;BME280;60680;52.182;5.398;2022-11-04T06:45:59;100481.19;;;8.90;91.81
71976;BME280;60680;52.182;5.398;2022-11-04T06:48:26;100481.19;;;8.90;92.55
71976;BME280;60680;52.182;5.398;2022-11-04T06:50:59;100480.47;;;8.88;91.91
71976;BME280;60680;52.182;5.398;2022-11-04T06:53:26;100487.56;;;8.85;92.23
71976;BME280;60680;52.182;5.398;2022-11-04T06:56:01;100490.16;;;8.85;92.38
71976;BME280;60680;52.182;5.398;2022-11-04T06:58:28;100489.63;;;8.78;92.12
71976;BME280;60680;52.182;5.398;2022-11-04T07:00:54;100496.63;;;8.76;92.27
71976;BME280;60680;52.182;5.398;2022-11-04T07:03:21;100496.41;;;8.81;92.08
71976;BME280;60680;52.182;5.398;2022-11-04T07:05:47;100501.59;;;8.81;92.60
71976;BME280;60680;52.182;5.398;2022-11-04T07:08:14;100511.34;;;8.75;91.59
71976;BME280;60680;52.182;5.398;2022-11-04T07:10:40;100504.47;;;8.74;92.62
71976;BME280;60680;52.182;5.398;2022-11-04T07:13:07;100510.44;;;8.76;92.58
71976;BME280;60680;52.182;5.398;2022-11-04T07:15:34;100510.38;;;8.78;91.89
71976;BME280;60680;52.182;5.398;2022-11-04T07:18:01;100509.44;;;8.79;92.26
71976;BME280;60680;52.182;5.398;2022-11-04T07:20:27;100509.66;;;8.74;92.06
71976;BME280;60680;52.182;5.398;2022-11-04T07:22:54;100510.50;;;8.75;92.38
71976;BME280;60680;52.182;5.398;2022-11-04T07:25:21;100509.50;;;8.77;92.66
71976;BME280;60680;52.182;5.398;2022-11-04T07:27:47;100513.63;;;8.82;92.44
71976;BME280;60680;52.182;5.398;2022-11-04T07:30:14;100510.22;;;8.81;92.29
71976;BME280;60680;52.182;5.398;2022-11-04T07:32:40;100517.94;;;8.83;92.65
71976;BME280;60680;52.182;5.398;2022-11-04T07:35:07;100520.28;;;8.87;91.88
71976;BME280;60680;52.182;5.398;2022-11-04T07:37:34;100513.50;;;8.85;92.27
71976;BME280;60680;52.182;5.398;2022-11-04T07:40:00;100522.94;;;8.86;92.67
71976;BME280;60680;52.182;5.398;2022-11-04T07:42:27;100517.75;;;8.86;92.70
71976;BME280;60680;52.182;5.398;2022-11-04T07:44:53;100526.53;;;8.83;92.57
71976;BME280;60680;52.182;5.398;2022-11-04T07:47:20;100529.84;;;8.87;93.21
71976;BME280;60680;52.182;5.398;2022-11-04T07:49:46;100529.53;;;8.93;92.15
71976;BME280;60680;52.182;5.398;2022-11-04T07:52:15;100540.00;;;8.91;92.75
71976;BME280;60680;52.182;5.398;2022-11-04T07:54:41;100545.13;;;8.93;93.46
71976;BME280;60680;52.182;5.398;2022-11-04T07:57:08;100548.38;;;8.96;93.00
71976;BME280;60680;52.182;5.398;2022-11-04T07:59:34;100557.63;;;9.02;93.07
71976;BME280;60680;52.182;5.398;2022-11-04T08:02:01;100557.41;;;9.07;93.19
71976;BME280;60680;52.182;5.398;2022-11-04T08:04:27;100554.56;;;9.11;93.03
71976;BME280;60680;52.182;5.398;2022-11-04T08:06:54;100556.97;;;9.16;93.02
71976;BME280;60680;52.182;5.398;2022-11-04T08:09:21;100568.19;;;9.16;92.85
71976;BME280;60680;52.182;5.398;2022-11-04T08:11:48;100568.13;;;9.18;93.09
71976;BME280;60680;52.182;5.398;2022-11-04T08:14:15;100570.84;;;9.15;93.39
71976;BME280;60680;52.182;5.398;2022-11-04T08:16:41;100568.25;;;9.15;93.11
71976;BME280;60680;52.182;5.398;2022-11-04T08:19:08;100574.16;;;9.18;93.17
71976;BME280;60680;52.182;5.398;2022-11-04T08:21:34;100572.16;;;9.24;93.10
71976;BME280;60680;52.182;5.398;2022-11-04T08:24:01;100574.53;;;9.28;93.12
71976;BME280;60680;52.182;5.398;2022-11-04T08:26:31;100582.09;;;9.33;93.35
71976;BME280;60680;52.182;5.398;2022-11-04T08:28:58;100587.13;;;9.36;93.02
71976;BME280;60680;52.182;5.398;2022-11-04T08:31:31;100583.41;;;9.42;93.07
71976;BME280;60680;52.182;5.398;2022-11-04T08:33:59;100589.44;;;9.42;93.17
71976;BME280;60680;52.182;5.398;2022-11-04T08:36:29;100614.47;;;9.43;92.50
71976;BME280;60680;52.182;5.398;2022-11-04T08:38:56;100615.25;;;9.45;93.12
71976;BME280;60680;52.182;5.398;2022-11-04T08:41:26;100620.00;;;9.54;93.20
71976;BME280;60680;52.182;5.398;2022-11-04T08:43:57;100620.59;;;9.59;92.86
71976;BME280;60680;52.182;5.398;2022-11-04T08:46:27;100625.63;;;9.63;92.59
71976;BME280;60680;52.182;5.398;2022-11-04T08:48:54;100634.50;;;9.76;92.19
71976;BME280;60680;52.182;5.398;2022-11-04T08:51:23;100624.25;;;9.90;92.92
71976;BME280;60680;52.182;5.398;2022-11-04T08:53:50;100623.59;;;10.03;92.43
71976;BME280;60680;52.182;5.398;2022-11-04T08:56:23;100632.28;;;10.19;92.21
71976;BME280;60680;52.182;5.398;2022-11-04T08:58:51;100633.34;;;10.32;90.92
71976;BME280;60680;52.182;5.398;2022-11-04T09:01:19;100631.72;;;10.47;90.05
71976;BME280;60680;52.182;5.398;2022-11-04T09:03:47;100624.19;;;10.58;90.67
71976;BME280;60680;52.182;5.398;2022-11-04T09:06:18;100633.84;;;10.72;89.72
71976;BME280;60680;52.182;5.398;2022-11-04T09:08:46;100634.44;;;10.77;89.86
71976;BME280;60680;52.182;5.398;2022-11-04T09:11:14;100634.75;;;10.87;89.27
71976;BME280;60680;52.182;5.398;2022-11-04T09:13:41;100639.44;;;10.96;90.02
71976;BME280;60680;52.182;5.398;2022-11-04T09:16:10;100641.13;;;10.97;89.46
71976;BME280;60680;52.182;5.398;2022-11-04T09:18:38;100646.88;;;10.88;88.91
71976;BME280;60680;52.182;5.398;2022-11-04T09:21:06;100639.97;;;10.87;89.66
71976;BME280;60680;52.182;5.398;2022-11-04T09:23:33;100647.59;;;11.06;89.48
71976;BME280;60680;52.182;5.398;2022-11-04T09:26:13;100649.78;;;11.14;88.97
71976;BME280;60680;52.182;5.398;2022-11-04T09:28:40;100651.72;;;11.10;89.47
71976;BME280;60680;52.182;5.398;2022-11-04T09:31:15;100658.00;;;11.06;89.78
71976;BME280;60680;52.182;5.398;2022-11-04T09:33:43;100661.03;;;11.14;89.57
71976;BME280;60680;52.182;5.398;2022-11-04T09:36:11;100662.53;;;11.02;88.61
71976;BME280;60680;52.182;5.398;2022-11-04T09:38:38;100664.00;;;10.92;88.94
71976;BME280;60680;52.182;5.398;2022-11-04T09:41:31;100670.50;;;10.84;88.92
71976;BME280;60680;52.182;5.398;2022-11-04T09:44:26;100676.22;;;10.74;89.46
71976;BME280;60680;52.182;5.398;2022-11-04T09:46:58;100684.88;;;10.75;90.37
71976;BME280;60680;52.182;5.398;2022-11-04T09:49:28;100666.50;;;10.78;90.04
71976;BME280;60680;52.182;5.398;2022-11-04T09:51:58;100681.78;;;10.84;89.71
71976;BME280;60680;52.182;5.398;2022-11-04T09:57:32;100686.50;;;10.93;90.19
71976;BME280;60680;52.182;5.398;2022-11-04T09:59:59;100688.00;;;10.97;89.61
71976;BME280;60680;52.182;5.398;2022-11-04T10:05:04;100707.13;;;10.96;90.30
71976;BME280;60680;52.182;5.398;2022-11-04T10:10:38;100717.91;;;10.90;89.92
71976;BME280;60680;52.182;5.398;2022-11-04T10:14:00;100719.06;;;10.85;88.99
71976;BME280;60680;52.182;5.398;2022-11-04T10:16:46;100732.84;;;10.87;89.58
71976;BME280;60680;52.182;5.398;2022-11-04T10:20:01;100733.09;;;10.82;89.58
71976;BME280;60680;52.182;5.398;2022-11-04T10:22:33;100741.56;;;10.86;89.73
71976;BME280;60680;52.182;5.398;2022-11-04T10:25:30;100745.59;;;10.91;90.49
71976;BME280;60680;52.182;5.398;2022-11-04T10:27:58;100741.56;;;10.86;89.44
71976;BME280;60680;52.182;5.398;2022-11-04T10:30:25;100743.41;;;10.84;89.87
71976;BME280;60680;52.182;5.398;2022-11-04T10:35:58;100742.31;;;10.88;89.67
71976;BME280;60680;52.182;5.398;2022-11-04T10:43:43;100737.41;;;10.99;90.80
71976;BME280;60680;52.182;5.398;2022-11-04T10:51:52;100758.31;;;11.13;90.26
71976;BME280;60680;52.182;5.398;2022-11-04T10:54:21;100752.88;;;11.18;90.34
71976;BME280;60680;52.182;5.398;2022-11-04T10:56:50;100754.38;;;11.22;90.68
71976;BME280;60680;52.182;5.398;2022-11-04T10:59:22;100759.50;;;11.23;90.31
71976;BME280;60680;52.182;5.398;2022-11-04T11:01:53;100767.22;;;11.25;90.18
71976;BME280;60680;52.182;5.398;2022-11-04T11:06:56;100782.59;;;11.30;89.96
71976;BME280;60680;52.182;5.398;2022-11-04T11:09:26;100789.19;;;11.37;91.14
71976;BME280;60680;52.182;5.398;2022-11-04T11:12:04;100795.88;;;11.41;89.31
71976;BME280;60680;52.182;5.398;2022-11-04T11:14:52;100801.44;;;11.51;89.77
71976;BME280;60680;52.182;5.398;2022-11-04T11:17:36;100802.28;;;11.51;89.85
71976;BME280;60680;52.182;5.398;2022-11-04T11:20:20;100797.25;;;11.48;89.16
71976;BME280;60680;52.182;5.398;2022-11-04T11:22:49;100798.91;;;11.49;89.36
71976;BME280;60680;52.182;5.398;2022-11-04T11:25:29;100792.28;;;11.43;89.38
71976;BME280;60680;52.182;5.398;2022-11-04T11:30:26;100794.91;;;11.43;89.17
71976;BME280;60680;52.182;5.398;2022-11-04T11:32:57;100792.88;;;11.49;88.81
71976;BME280;60680;52.182;5.398;2022-11-04T11:35:28;100776.22;;;11.51;89.31
71976;BME280;60680;52.182;5.398;2022-11-04T11:37:57;100790.09;;;11.68;89.10
71976;BME280;60680;52.182;5.398;2022-11-04T11:40:35;100787.63;;;11.80;88.07
71976;BME280;60680;52.182;5.398;2022-11-04T11:43:33;100786.88;;;11.78;88.29
71976;BME280;60680;52.182;5.398;2022-11-04T11:46:00;100787.97;;;11.74;88.65
71976;BME280;60680;52.182;5.398;2022-11-04T11:48:37;100797.09;;;11.81;89.56
71976;BME280;60680;52.182;5.398;2022-11-04T11:51:05;100806.06;;;11.93;88.27
71976;BME280;60680;52.182;5.398;2022-11-04T11:53:32;100804.88;;;11.99;88.17
71976;BME280;60680;52.182;5.398;2022-11-04T11:56:23;100803.66;;;12.04;86.83
71976;BME280;60680;52.182;5.398;2022-11-04T11:59:03;100807.78;;;12.09;86.47
71976;BME280;60680;52.182;5.398;2022-11-04T12:02:01;100811.81;;;12.14;85.11
71976;BME280;60680;52.182;5.398;2022-11-04T12:04:29;100806.03;;;12.09;84.20
71976;BME280;60680;52.182;5.398;2022-11-04T12:07:30;100812.44;;;12.03;84.24
71976;BME280;60680;52.182;5.398;2022-11-04T12:13:21;100811.69;;;12.01;84.36
71976;BME280;60680;52.182;5.398;2022-11-04T12:18:52;100813.59;;;11.98;85.10
71976;BME280;60680;52.182;5.398;2022-11-04T12:21:26;100823.28;;;11.96;84.76
71976;BME280;60680;52.182;5.398;2022-11-04T12:24:43;100821.44;;;11.98;84.58
71976;BME280;60680;52.182;5.398;2022-11-04T12:30:22;100834.41;;;11.99;85.29
71976;BME280;60680;52.182;5.398;2022-11-04T12:33:16;100839.34;;;12.04;85.50
71976;BME280;60680;52.182;5.398;2022-11-04T12:46:36;100849.44;;;12.10;85.14
71976;BME280;60680;52.182;5.398;2022-11-04T12:49:18;100861.66;;;12.10;84.64
71976;BME280;60680;52.182;5.398;2022-11-04T12:54:52;100862.06;;;12.18;85.74
71976;BME280;60680;52.182;5.398;2022-11-04T13:00:14;100857.47;;;12.21;85.14
71976;BME280;60680;52.182;5.398;2022-11-04T13:02:50;100856.66;;;12.21;85.44
71976;BME280;60680;52.182;5.398;2022-11-04T13:05:35;100863.72;;;12.19;84.72
71976;BME280;60680;52.182;5.398;2022-11-04T13:08:12;100870.72;;;12.18;84.53
71976;BME280;60680;52.182;5.398;2022-11-04T13:10:47;100868.94;;;12.19;85.33
71976;BME280;60680;52.182;5.398;2022-11-04T13:13:17;100868.84;;;12.20;85.00
71976;BME280;60680;52.182;5.398;2022-11-04T13:15:50;100876.75;;;12.19;85.48
71976;BME280;60680;52.182;5.398;2022-11-04T13:18:19;100870.78;;;12.17;85.30
71976;BME280;60680;52.182;5.398;2022-11-04T13:20:53;100879.56;;;12.16;85.58
71976;BME280;60680;52.182;5.398;2022-11-04T13:23:35;100899.84;;;12.11;86.37
71976;BME280;60680;52.182;5.398;2022-11-04T13:26:08;100898.63;;;11.84;80.46
71976;BME280;60680;52.182;5.398;2022-11-04T13:28:37;100906.69;;;11.64;80.17
71976;BME280;60680;52.182;5.398;2022-11-04T13:31:15;100909.38;;;11.47;78.32
71976;BME280;60680;52.182;5.398;2022-11-04T13:36:39;100912.59;;;11.18;78.40
71976;BME280;60680;52.182;5.398;2022-11-04T13:39:14;100927.00;;;11.08;77.96
71976;BME280;60680;52.182;5.398;2022-11-04T13:44:30;100938.25;;;10.91;78.52
71976;BME280;60680;52.182;5.398;2022-11-04T13:47:05;100940.94;;;10.90;78.76
71976;BME280;60680;52.182;5.398;2022-11-04T13:49:49;100940.16;;;10.88;77.42
71976;BME280;60680;52.182;5.398;2022-11-04T13:52:16;100931.59;;;10.86;75.96
71976;BME280;60680;52.182;5.398;2022-11-04T13:57:28;100937.66;;;10.86;75.61
71976;BME280;60680;52.182;5.398;2022-11-04T14:08:14;100956.19;;;10.97;77.18
71976;BME280;60680;52.182;5.398;2022-11-04T14:10:57;100957.78;;;11.00;76.88
71976;BME280;60680;52.182;5.398;2022-11-04T14:18:43;100954.81;;;11.08;76.60
71976;BME280;60680;52.182;5.398;2022-11-04T14:21:13;100964.16;;;11.12;76.21
71976;BME280;60680;52.182;5.398;2022-11-04T14:23:52;100962.22;;;11.15;76.38
71976;BME280;60680;52.182;5.398;2022-11-04T14:26:25;100957.94;;;11.14;76.93
71976;BME280;60680;52.182;5.398;2022-11-04T14:29:07;100960.47;;;11.16;77.39
71976;BME280;60680;52.182;5.398;2022-11-04T14:31:37;100969.25;;;11.13;77.44
71976;BME280;60680;52.182;5.398;2022-11-04T14:34:05;100972.63;;;11.15;77.66
71976;BME280;60680;52.182;5.398;2022-11-04T14:36:39;100977.94;;;11.14;76.56
71976;BME280;60680;52.182;5.398;2022-11-04T14:46:43;100996.84;;;11.17;77.86
71976;BME280;60680;52.182;5.398;2022-11-04T14:49:31;101008.44;;;11.12;78.26
71976;BME280;60680;52.182;5.398;2022-11-04T14:52:01;101012.78;;;11.11;79.33
71976;BME280;60680;52.182;5.398;2022-11-04T14:54:30;101011.69;;;11.15;79.06
71976;BME280;60680;52.182;5.398;2022-11-04T14:57:13;101016.91;;;11.15;78.00
71976;BME280;60680;52.182;5.398;2022-11-04T14:59:40;101023.06;;;11.14;78.17
71976;BME280;60680;52.182;5.398;2022-11-04T15:02:28;101026.56;;;11.13;78.36
71976;BME280;60680;52.182;5.398;2022-11-04T15:04:58;101021.59;;;11.09;78.67
71976;BME280;60680;52.182;5.398;2022-11-04T15:07:37;101025.88;;;11.10;77.77
71976;BME280;60680;52.182;5.398;2022-11-04T15:10:30;101031.22;;;11.07;78.78
71976;BME280;60680;52.182;5.398;2022-11-04T15:13:00;101037.59;;;11.01;78.80
71976;BME280;60680;52.182;5.398;2022-11-04T15:15:37;101036.06;;;10.97;79.69
71976;BME280;60680;52.182;5.398;2022-11-04T15:18:12;101039.88;;;10.90;79.81
71976;BME280;60680;52.182;5.398;2022-11-04T15:20:48;101057.50;;;10.85;79.71
71976;BME280;60680;52.182;5.398;2022-11-04T15:23:17;101063.69;;;10.82;80.71
71976;BME280;60680;52.182;5.398;2022-11-04T15:25:47;101061.09;;;10.82;81.22
71976;BME280;60680;52.182;5.398;2022-11-04T15:28:20;101070.63;;;10.81;81.04
71976;BME280;60680;52.182;5.398;2022-11-04T15:33:43;101074.31;;;10.77;82.26
71976;BME280;60680;52.182;5.398;2022-11-04T15:36:31;101084.81;;;10.76;82.14